ミラノ/マルペンサ の空港の天気 - METARとTAF

ミラノ・マルペンサ国際空港 ( LIMC / MXP ) - イタリア ミラノ
飛行場実況気象(Metar)
観測時間02/28 01:20 CET (02/28 00:20 UTC)
風向・風速東南東 4m/s
視程4000m
天気現象もや
全天を覆う雲 雲底高度 910m
気温6℃
湿度93%
気圧1011hPa
METARLIMC 280020Z 11007KT 4000 BR OVC030 06/05 Q1011 NOSIG
過去の天気等 Google飛行場航空写真 Wunderground天気予報

過去48時間のMETAR

飛行場予報(TAF)
発表時間: 2/28 00:00 CET (2/27 23:00 UTC)
予報対象時間: 28日1時 CET ~ 1日7時 CET
風向・風速東 4m/s
視程5,000m
天気現象
全天の4割程度の雲 雲底高度 370m
全天の8割程度の雲 雲底高度 1,520m
28日22時 CET ~ 1日1時 CET に徐々に
風向・風速西北西 5m/s
視程10km以上
天気現象運行に影響にある天気現象が終了
全天の4割程度の雲 雲底高度 2,130m
TAF LIMC 272300Z 2800/0106 08007KT 5000 RA SCT012 BKN050
BECMG 2821/2824 30010KT 9999 NSW SCT070